createdAt,value
2023-04-24T00:01:08.840Z,10.47
2023-04-24T00:03:36.305Z,10.51
2023-04-24T00:06:03.903Z,10.48
2023-04-24T00:08:30.770Z,10.50
2023-04-24T00:10:57.663Z,10.48
2023-04-24T00:13:24.388Z,10.40
2023-04-24T00:15:51.145Z,10.35
2023-04-24T00:18:18.087Z,10.31
2023-04-24T00:20:45.045Z,10.34
2023-04-24T00:23:11.927Z,10.33
2023-04-24T00:25:38.826Z,10.37
2023-04-24T00:28:05.733Z,10.34
2023-04-24T00:30:32.485Z,10.28
2023-04-24T00:32:59.276Z,10.37
2023-04-24T00:35:26.095Z,10.35
2023-04-24T00:37:52.832Z,10.37
2023-04-24T00:40:19.643Z,10.39
2023-04-24T00:42:46.710Z,10.47
2023-04-24T00:45:14.079Z,10.40
2023-04-24T00:47:42.989Z,10.37
2023-04-24T00:50:10.392Z,10.38
2023-04-24T00:52:37.197Z,10.31
2023-04-24T00:55:04.348Z,10.26
2023-04-24T00:57:31.631Z,10.29
2023-04-24T00:59:58.844Z,10.38
2023-04-24T01:02:26.112Z,10.40
2023-04-24T01:04:53.166Z,10.39
2023-04-24T01:07:23.306Z,10.43
2023-04-24T01:09:53.276Z,10.37
2023-04-24T01:12:20.906Z,10.43
2023-04-24T01:14:47.797Z,10.51
2023-04-24T01:17:16.482Z,10.52
2023-04-24T01:19:46.097Z,10.54
2023-04-24T01:22:15.612Z,10.49
2023-04-24T01:24:43.863Z,10.45
2023-04-24T01:27:12.938Z,10.47
2023-04-24T01:29:39.910Z,10.41
2023-04-24T01:32:07.153Z,10.45
2023-04-24T01:34:35.139Z,10.42
2023-04-24T01:37:02.292Z,10.42
2023-04-24T01:39:29.766Z,10.46
2023-04-24T01:41:57.371Z,10.38
2023-04-24T01:44:24.550Z,10.35
2023-04-24T01:46:51.774Z,10.36
2023-04-24T01:49:18.906Z,10.37
2023-04-24T01:51:46.110Z,10.32
2023-04-24T01:54:13.509Z,10.36
2023-04-24T01:56:43.764Z,10.30
2023-04-24T01:59:12.341Z,10.33
2023-04-24T02:01:40.062Z,10.30
2023-04-24T02:04:07.879Z,10.40
2023-04-24T02:06:36.627Z,10.26
2023-04-24T02:09:04.478Z,10.27
2023-04-24T02:11:31.440Z,10.27
2023-04-24T02:13:58.956Z,10.19
2023-04-24T02:16:26.083Z,10.25
2023-04-24T02:18:52.859Z,10.16
2023-04-24T02:21:19.632Z,10.17
2023-04-24T02:23:46.336Z,10.08
2023-04-24T02:26:13.684Z,10.08
2023-04-24T02:28:40.611Z,10.10
2023-04-24T02:31:07.833Z,10.04
2023-04-24T02:33:34.520Z,9.99
2023-04-24T02:36:01.445Z,9.99
2023-04-24T02:38:28.495Z,9.97
2023-04-24T02:40:55.309Z,9.99
2023-04-24T02:43:22.278Z,9.94
2023-04-24T02:45:49.217Z,9.98
2023-04-24T02:48:16.257Z,9.93
2023-04-24T02:50:42.999Z,9.87
2023-04-24T02:53:09.732Z,9.87
2023-04-24T02:55:36.823Z,9.90
2023-04-24T02:58:03.777Z,9.86
2023-04-24T03:00:31.170Z,9.83
2023-04-24T03:02:58.138Z,9.85
2023-04-24T03:05:24.991Z,9.75
2023-04-24T03:07:53.811Z,9.74
2023-04-24T03:10:23.778Z,9.77
2023-04-24T03:12:50.782Z,9.70
2023-04-24T03:15:19.105Z,9.69
2023-04-24T03:17:46.137Z,9.65
2023-04-24T03:20:13.354Z,9.58
2023-04-24T03:22:40.625Z,9.49
2023-04-24T03:25:10.551Z,9.45
2023-04-24T03:27:38.618Z,9.43
2023-04-24T03:30:29.289Z,9.38
2023-04-24T03:32:59.540Z,9.28
2023-04-24T03:35:29.963Z,9.13
2023-04-24T03:37:59.059Z,9.17
2023-04-24T03:40:44.349Z,9.14
2023-04-24T03:43:35.963Z,8.99
2023-04-24T03:46:03.477Z,9.08
2023-04-24T03:48:33.141Z,8.97
2023-04-24T03:51:00.205Z,8.86
2023-04-24T03:53:27.694Z,8.89
2023-04-24T03:55:56.187Z,8.89
2023-04-24T03:58:23.647Z,8.82
2023-04-24T04:00:51.412Z,8.81
2023-04-24T04:03:38.658Z,8.73
2023-04-24T04:06:06.000Z,8.67
2023-04-24T04:08:32.771Z,8.64
2023-04-24T04:10:59.709Z,8.52
2023-04-24T04:13:26.532Z,8.46
2023-04-24T04:15:53.892Z,8.41
2023-04-24T04:18:21.056Z,8.36
2023-04-24T04:20:48.046Z,8.23
2023-04-24T04:23:15.903Z,8.13
2023-04-24T04:25:56.245Z,8.11
2023-04-24T04:28:27.640Z,8.11
2023-04-24T04:30:58.651Z,8.13
2023-04-24T04:33:27.121Z,8.04
2023-04-24T04:35:54.263Z,7.99
2023-04-24T04:38:21.951Z,7.93
2023-04-24T04:41:02.279Z,7.88
2023-04-24T04:43:32.203Z,7.87
2023-04-24T04:45:59.362Z,7.74
2023-04-24T04:48:47.053Z,7.89
2023-04-24T04:51:14.150Z,7.84
2023-04-24T04:53:41.039Z,7.84
2023-04-24T04:56:08.030Z,7.87
2023-04-24T04:58:39.533Z,7.96
2023-04-24T05:01:09.775Z,8.00
2023-04-24T05:03:42.045Z,7.92
2023-04-24T05:06:11.758Z,7.98
2023-04-24T05:08:39.779Z,8.07
2023-04-24T05:11:09.867Z,8.08
2023-04-24T05:13:40.369Z,8.59
2023-04-24T05:16:18.527Z,8.76
2023-04-24T05:18:45.966Z,8.18
2023-04-24T05:21:15.675Z,8.29
2023-04-24T05:23:45.731Z,8.19
2023-04-24T05:26:16.819Z,8.20
2023-04-24T05:28:43.596Z,8.27
2023-04-24T05:31:13.845Z,8.33
2023-04-24T05:33:40.998Z,8.27
2023-04-24T05:36:08.316Z,8.33
2023-04-24T05:38:35.294Z,8.34
2023-04-24T05:41:02.148Z,8.34
2023-04-24T05:43:28.886Z,8.40
2023-04-24T05:45:56.542Z,8.48
2023-04-24T05:48:24.051Z,8.48
2023-04-24T05:50:50.841Z,8.65
2023-04-24T05:53:17.838Z,8.66
2023-04-24T05:55:44.926Z,8.81
2023-04-24T05:58:13.266Z,9.06
2023-04-24T06:00:43.639Z,9.14
2023-04-24T06:03:10.861Z,8.94
2023-04-24T06:05:37.937Z,8.96
2023-04-24T06:08:05.146Z,8.93
2023-04-24T06:10:36.296Z,8.86
2023-04-24T06:13:03.716Z,8.80
2023-04-24T06:15:34.445Z,8.75
2023-04-24T06:18:11.405Z,8.86
2023-04-24T06:20:39.510Z,8.92
2023-04-24T06:23:06.205Z,9.11
2023-04-24T06:25:34.191Z,9.07
2023-04-24T06:28:01.031Z,9.16
2023-04-24T06:30:30.110Z,9.30
2023-04-24T06:33:00.771Z,9.11
2023-04-24T06:35:32.861Z,9.21
2023-04-24T06:37:59.500Z,9.32
2023-04-24T06:40:26.533Z,9.32
2023-04-24T06:42:53.243Z,9.32
2023-04-24T06:45:20.178Z,9.43
2023-04-24T06:47:47.042Z,9.65
2023-04-24T06:50:13.846Z,9.89
2023-04-24T06:52:41.912Z,10.03
2023-04-24T06:55:09.424Z,9.80
2023-04-24T06:57:36.267Z,10.39
2023-04-24T07:00:04.659Z,10.22
2023-04-24T07:02:31.511Z,10.45
2023-04-24T07:04:58.256Z,10.55
2023-04-24T07:07:25.638Z,10.82
2023-04-24T07:09:52.534Z,10.75
2023-04-24T07:12:22.033Z,10.59
2023-04-24T07:14:49.245Z,10.77
2023-04-24T07:17:16.037Z,10.70
2023-04-24T07:19:43.461Z,11.30
2023-04-24T07:22:12.667Z,11.36
2023-04-24T07:24:39.378Z,11.26
2023-04-24T07:27:06.210Z,11.14
2023-04-24T07:29:32.881Z,11.41
2023-04-24T07:32:00.998Z,11.50
2023-04-24T07:34:29.551Z,11.40
2023-04-24T07:36:56.326Z,11.17
2023-04-24T07:39:23.760Z,11.02
2023-04-24T07:41:50.703Z,10.86
2023-04-24T07:44:17.503Z,10.81
2023-04-24T07:46:44.527Z,10.77
2023-04-24T07:49:14.196Z,10.74
2023-04-24T07:51:42.759Z,10.53
2023-04-24T07:54:09.981Z,10.72
2023-04-24T07:56:40.285Z,10.70
2023-04-24T07:59:07.397Z,10.68
2023-04-24T08:01:34.205Z,10.51
2023-04-24T08:04:01.428Z,10.58
2023-04-24T08:06:31.749Z,10.52
2023-04-24T08:08:59.330Z,10.50
2023-04-24T08:11:27.247Z,10.53
2023-04-24T08:13:54.123Z,10.68
2023-04-24T08:16:20.896Z,10.43
2023-04-24T08:18:47.621Z,10.28
2023-04-24T08:21:18.250Z,10.36
2023-04-24T08:23:45.241Z,10.75
2023-04-24T08:26:12.673Z,10.70
2023-04-24T08:28:42.116Z,10.59
2023-04-24T08:31:08.933Z,10.57
2023-04-24T08:33:36.135Z,10.46
2023-04-24T08:36:06.743Z,10.77
2023-04-24T08:38:34.063Z,10.84
2023-04-24T08:41:02.418Z,10.76
2023-04-24T08:43:29.553Z,10.70
2023-04-24T08:45:57.619Z,10.58
2023-04-24T08:48:30.785Z,10.56
2023-04-24T08:50:58.623Z,10.47
2023-04-24T08:53:26.405Z,10.55
2023-04-24T08:55:55.777Z,10.69
2023-04-24T08:58:23.392Z,10.87
2023-04-24T09:00:50.870Z,10.80
2023-04-24T09:03:18.407Z,11.00
2023-04-24T09:05:48.067Z,10.66
2023-04-24T09:08:15.324Z,10.48
2023-04-24T09:10:42.504Z,10.48
2023-04-24T09:13:15.244Z,10.37
2023-04-24T09:15:42.437Z,10.48
2023-04-24T09:18:09.495Z,10.51
2023-04-24T09:20:37.375Z,10.53
2023-04-24T09:23:04.197Z,10.39
2023-04-24T09:25:35.413Z,10.35
2023-04-24T09:28:04.275Z,10.43
2023-04-24T09:30:31.479Z,10.46
2023-04-24T09:33:24.951Z,10.37
2023-04-24T09:35:54.578Z,10.37
2023-04-24T09:38:32.457Z,10.60
2023-04-24T09:41:09.690Z,10.50
2023-04-24T09:43:36.853Z,10.35
2023-04-24T09:46:11.217Z,10.14
2023-04-24T09:48:38.908Z,10.13
2023-04-24T09:51:13.521Z,10.03
2023-04-24T09:53:43.117Z,9.95
2023-04-24T09:56:14.245Z,10.04
2023-04-24T09:58:41.149Z,10.06
2023-04-24T10:01:08.117Z,9.71
2023-04-24T10:03:35.612Z,9.60
2023-04-24T10:06:04.168Z,9.32
2023-04-24T10:08:35.588Z,9.45
2023-04-24T10:11:02.863Z,10.00
2023-04-24T10:13:30.247Z,10.47
2023-04-24T10:15:59.958Z,10.70
2023-04-24T10:18:28.152Z,11.16
2023-04-24T10:20:56.161Z,11.19
2023-04-24T10:23:24.376Z,11.00
2023-04-24T10:25:52.400Z,11.11
2023-04-24T10:28:20.226Z,11.41
2023-04-24T10:30:47.229Z,11.68
2023-04-24T10:33:15.138Z,12.09
2023-04-24T10:35:50.173Z,12.01
2023-04-24T10:38:28.943Z,11.45
2023-04-24T10:41:09.701Z,11.65
2023-04-24T10:43:36.572Z,11.86
2023-04-24T10:46:06.132Z,12.07
2023-04-24T10:48:33.909Z,11.92
2023-04-24T10:51:01.085Z,11.82
2023-04-24T10:53:32.247Z,11.80
2023-04-24T10:56:03.314Z,11.71
2023-04-24T10:58:50.546Z,11.65
2023-04-24T11:01:34.358Z,11.43
2023-04-24T11:04:05.921Z,11.58
2023-04-24T11:06:39.059Z,11.41
2023-04-24T11:09:09.791Z,11.22
2023-04-24T11:11:38.608Z,11.12
2023-04-24T11:14:08.009Z,11.36
2023-04-24T11:16:35.348Z,11.14
2023-04-24T11:19:05.331Z,10.80
2023-04-24T11:21:39.766Z,10.81
2023-04-24T11:24:27.571Z,11.08
2023-04-24T11:27:00.170Z,11.19
2023-04-24T11:29:49.620Z,11.08
2023-04-24T11:32:30.183Z,10.88
2023-04-24T11:35:02.578Z,10.98
2023-04-24T11:40:21.763Z,10.51
2023-04-24T11:42:49.375Z,10.42
2023-04-24T11:45:18.379Z,10.29
2023-04-24T11:47:45.952Z,10.18
2023-04-24T11:50:15.083Z,10.33
2023-04-24T11:52:45.303Z,10.01
2023-04-24T11:55:15.178Z,9.97
2023-04-24T11:57:52.744Z,9.85
2023-04-24T12:00:27.939Z,9.94
2023-04-24T12:03:14.421Z,9.87
2023-04-24T12:05:41.877Z,9.88
2023-04-24T12:08:08.996Z,9.79
2023-04-24T12:10:36.446Z,10.08
2023-04-24T12:13:03.820Z,10.32
2023-04-24T12:15:30.984Z,10.81
2023-04-24T12:17:58.461Z,11.01
2023-04-24T12:20:30.632Z,10.87
2023-04-24T12:22:59.775Z,10.71
2023-04-24T12:25:28.677Z,10.69
2023-04-24T12:28:14.299Z,11.37
2023-04-24T12:30:45.857Z,12.15
2023-04-24T12:33:13.266Z,12.64
2023-04-24T12:35:42.268Z,11.97
2023-04-24T12:38:11.741Z,11.72
2023-04-24T12:40:38.537Z,11.61
2023-04-24T12:43:16.775Z,11.72
2023-04-24T12:45:43.780Z,11.86
2023-04-24T12:48:10.618Z,11.46
2023-04-24T12:50:37.520Z,11.61
2023-04-24T12:53:04.363Z,11.39
2023-04-24T12:55:31.530Z,11.40
2023-04-24T12:57:59.528Z,11.45
2023-04-24T13:00:26.505Z,11.12
2023-04-24T13:02:53.474Z,10.72
2023-04-24T13:05:20.390Z,10.94
2023-04-24T13:07:47.234Z,11.14
2023-04-24T13:10:14.566Z,12.01
2023-04-24T13:12:41.584Z,12.26
2023-04-24T13:15:08.927Z,12.65
2023-04-24T13:17:35.910Z,12.94
2023-04-24T13:20:02.699Z,12.38
2023-04-24T13:22:29.468Z,11.78
2023-04-24T13:24:57.365Z,11.12
2023-04-24T13:27:24.118Z,11.88
2023-04-24T13:29:50.840Z,11.57
2023-04-24T13:32:18.377Z,11.49
2023-04-24T13:34:45.352Z,11.50
2023-04-24T13:37:12.187Z,11.51
2023-04-24T13:39:38.917Z,11.70
2023-04-24T13:42:05.920Z,11.45
2023-04-24T13:44:32.768Z,10.95
2023-04-24T13:47:00.009Z,10.85
2023-04-24T13:49:28.104Z,10.68
2023-04-24T13:51:56.765Z,11.10
2023-04-24T13:54:24.948Z,10.82
2023-04-24T13:56:53.012Z,11.17
2023-04-24T13:59:21.453Z,11.03
2023-04-24T14:01:49.142Z,11.35
2023-04-24T14:04:16.749Z,12.05
2023-04-24T14:06:45.204Z,12.03
2023-04-24T14:09:11.968Z,11.73
2023-04-24T14:11:38.977Z,12.02
2023-04-24T14:14:06.798Z,12.34
2023-04-24T14:16:34.060Z,12.32
2023-04-24T14:19:00.793Z,12.03
2023-04-24T14:21:27.601Z,11.91
2023-04-24T14:23:54.361Z,11.44
2023-04-24T14:26:21.200Z,11.81
2023-04-24T14:28:48.178Z,12.22
2023-04-24T14:31:15.063Z,11.88
2023-04-24T14:33:42.147Z,12.06
2023-04-24T14:36:09.014Z,12.00
2023-04-24T14:38:36.108Z,12.11
2023-04-24T14:41:10.472Z,11.82
2023-04-24T14:43:43.293Z,11.83
2023-04-24T14:46:10.530Z,11.77
2023-04-24T14:48:37.248Z,11.55
2023-04-24T14:51:03.996Z,11.35
2023-04-24T14:53:31.154Z,11.40
2023-04-24T14:55:58.233Z,11.39
2023-04-24T14:58:25.192Z,11.25
2023-04-24T15:00:53.096Z,11.31
2023-04-24T15:03:20.382Z,11.17
2023-04-24T15:05:47.649Z,11.19
2023-04-24T15:08:15.122Z,11.06
2023-04-24T15:10:42.011Z,11.01
2023-04-24T15:13:08.793Z,10.77
2023-04-24T15:15:35.789Z,10.81
2023-04-24T15:18:02.673Z,10.78
2023-04-24T15:20:29.377Z,10.94
2023-04-24T15:22:56.342Z,10.95
2023-04-24T15:25:23.238Z,10.97
2023-04-24T15:27:50.293Z,11.09
2023-04-24T15:30:17.074Z,11.29
2023-04-24T15:32:43.855Z,11.37
2023-04-24T15:35:11.716Z,11.37
2023-04-24T15:37:39.742Z,11.09
2023-04-24T15:40:08.661Z,11.04
2023-04-24T15:42:36.490Z,10.86
2023-04-24T15:45:04.552Z,10.85
2023-04-24T15:47:31.446Z,10.83
2023-04-24T15:49:58.793Z,10.53
2023-04-24T15:52:25.674Z,10.54
2023-04-24T15:54:52.393Z,10.85
2023-04-24T15:57:19.344Z,10.82
2023-04-24T15:59:46.181Z,10.84
2023-04-24T16:02:21.054Z,10.88
2023-04-24T16:04:49.364Z,11.29
2023-04-24T16:07:18.361Z,11.19
2023-04-24T16:09:47.817Z,11.02
2023-04-24T16:12:14.935Z,11.17
2023-04-24T16:14:42.091Z,11.32
2023-04-24T16:17:09.022Z,11.33
2023-04-24T16:19:35.805Z,11.37
2023-04-24T16:22:03.450Z,11.38
2023-04-24T16:24:30.474Z,11.27
2023-04-24T16:26:57.212Z,11.20
2023-04-24T16:29:24.341Z,11.08
2023-04-24T16:31:51.169Z,10.93
2023-04-24T16:34:18.064Z,11.03
2023-04-24T16:36:44.862Z,11.11
2023-04-24T16:39:11.712Z,11.07
2023-04-24T16:41:39.390Z,11.18
2023-04-24T16:44:06.528Z,10.98
2023-04-24T16:46:33.313Z,10.87
2023-04-24T16:49:00.301Z,10.83
2023-04-24T16:51:27.921Z,10.64
2023-04-24T16:53:55.079Z,10.87
2023-04-24T16:56:21.815Z,10.76
2023-04-24T16:58:48.978Z,10.84
2023-04-24T17:01:16.137Z,10.82
2023-04-24T17:03:43.090Z,10.67
2023-04-24T17:06:10.518Z,10.64
2023-04-24T17:08:37.266Z,10.64
2023-04-24T17:11:04.242Z,10.62
2023-04-24T17:13:30.962Z,10.74
2023-04-24T17:15:57.726Z,10.63
2023-04-24T17:18:24.887Z,10.47
2023-04-24T17:20:51.625Z,10.47
2023-04-24T17:23:18.553Z,10.52
2023-04-24T17:25:45.500Z,10.38
2023-04-24T17:28:31.599Z,10.13
2023-04-24T17:30:58.792Z,10.26
2023-04-24T17:33:26.391Z,10.10
2023-04-24T17:35:53.178Z,10.08
2023-04-24T17:38:20.839Z,9.99
2023-04-24T17:40:47.730Z,9.97
2023-04-24T17:43:18.316Z,10.02
2023-04-24T17:45:45.802Z,10.02
2023-04-24T17:48:13.924Z,9.97
2023-04-24T17:50:41.259Z,9.96
2023-04-24T17:53:10.890Z,9.88
2023-04-24T17:55:39.314Z,9.96
2023-04-24T17:58:06.517Z,9.95
2023-04-24T18:00:33.881Z,9.92
2023-04-24T18:03:02.143Z,9.97
2023-04-24T18:05:30.205Z,9.88
2023-04-24T18:07:57.747Z,9.86
2023-04-24T18:10:26.593Z,9.85
2023-04-24T18:12:53.348Z,9.90
2023-04-24T18:15:20.616Z,9.84
2023-04-24T18:17:47.764Z,9.79
2023-04-24T18:20:16.493Z,9.78
2023-04-24T18:22:43.714Z,9.68
2023-04-24T18:25:11.100Z,9.67
2023-04-24T18:27:38.808Z,9.69
2023-04-24T18:30:07.014Z,9.67
2023-04-24T18:32:34.540Z,9.54
2023-04-24T18:35:01.657Z,9.52
2023-04-24T18:37:28.483Z,9.48
2023-04-24T18:39:56.474Z,9.41
2023-04-24T18:42:23.241Z,9.39
2023-04-24T18:44:50.407Z,9.45
2023-04-24T18:47:17.264Z,9.42
2023-04-24T18:49:44.161Z,9.52
2023-04-24T18:52:11.037Z,9.27
2023-04-24T18:54:37.914Z,9.38
2023-04-24T18:57:04.665Z,9.38
2023-04-24T18:59:31.592Z,9.40
2023-04-24T19:01:58.309Z,9.42
2023-04-24T19:04:24.979Z,9.28
2023-04-24T19:06:51.645Z,9.28
2023-04-24T19:09:18.728Z,9.33
2023-04-24T19:11:46.061Z,9.32
2023-04-24T19:14:13.691Z,9.33
2023-04-24T19:16:41.023Z,9.23
2023-04-24T19:19:08.265Z,9.18
2023-04-24T19:21:35.486Z,9.21
2023-04-24T19:24:02.547Z,9.16
2023-04-24T19:26:31.528Z,9.17
2023-04-24T19:28:59.171Z,9.18
2023-04-24T19:31:26.468Z,9.04
2023-04-24T19:33:53.429Z,9.09
2023-04-24T19:36:20.202Z,9.20
2023-04-24T19:38:47.685Z,9.20
2023-04-24T19:41:14.658Z,9.18
2023-04-24T19:43:41.363Z,9.05
2023-04-24T19:46:08.349Z,9.19
2023-04-24T19:48:35.469Z,9.19
2023-04-24T19:51:03.314Z,9.11
2023-04-24T19:53:30.772Z,9.12
2023-04-24T19:55:57.530Z,9.09
2023-04-24T19:58:24.571Z,9.06
2023-04-24T20:00:51.662Z,9.11
2023-04-24T20:03:31.307Z,9.13
2023-04-24T20:05:59.338Z,9.01
2023-04-24T20:08:26.079Z,9.03
2023-04-24T20:10:54.675Z,8.99
2023-04-24T20:13:21.510Z,8.92
2023-04-24T20:15:48.206Z,8.88
2023-04-24T20:18:15.017Z,8.91
2023-04-24T20:20:41.879Z,8.94
2023-04-24T20:23:08.787Z,9.00
2023-04-24T20:25:36.527Z,8.97
2023-04-24T20:28:03.583Z,8.83
2023-04-24T20:30:31.658Z,8.90
2023-04-24T20:32:58.885Z,8.87
2023-04-24T20:35:25.753Z,8.79
2023-04-24T20:37:53.901Z,8.86
2023-04-24T20:40:20.834Z,8.86
2023-04-24T20:42:47.576Z,8.82
2023-04-24T20:45:14.603Z,8.75
2023-04-24T20:47:41.390Z,8.74
2023-04-24T20:50:08.706Z,8.79
2023-04-24T20:52:35.539Z,8.73
2023-04-24T20:55:02.314Z,8.63
2023-04-24T20:57:29.269Z,8.70
2023-04-24T20:59:56.008Z,8.62
2023-04-24T21:02:22.842Z,8.64
2023-04-24T21:04:49.562Z,8.67
2023-04-24T21:07:17.763Z,8.58
2023-04-24T21:09:44.562Z,8.49
2023-04-24T21:12:11.299Z,8.48
2023-04-24T21:14:37.937Z,8.42
2023-04-24T21:17:04.827Z,8.56
2023-04-24T21:19:31.493Z,8.46
2023-04-24T21:21:58.224Z,8.51
2023-04-24T21:24:25.226Z,8.45
2023-04-24T21:26:51.981Z,8.39
2023-04-24T21:29:18.827Z,8.35
2023-04-24T21:31:45.907Z,8.43
2023-04-24T21:34:13.018Z,8.41
2023-04-24T21:36:39.999Z,8.44
2023-04-24T21:39:06.788Z,8.39
2023-04-24T21:41:33.426Z,8.45
2023-04-24T21:44:00.207Z,8.52
2023-04-24T21:46:26.964Z,8.54
2023-04-24T21:48:53.725Z,8.32
2023-04-24T21:51:20.695Z,8.40
2023-04-24T21:53:47.813Z,8.36
2023-04-24T21:56:14.729Z,8.25
2023-04-24T21:58:41.741Z,8.28
2023-04-24T22:01:09.431Z,8.38
2023-04-24T22:03:36.327Z,8.31
2023-04-24T22:06:03.226Z,8.28
2023-04-24T22:08:30.050Z,8.24
2023-04-24T22:10:56.764Z,8.26
2023-04-24T22:13:23.501Z,8.33
2023-04-24T22:15:53.714Z,8.30
2023-04-24T22:18:20.594Z,8.34
2023-04-24T22:20:47.471Z,8.42
2023-04-24T22:23:14.371Z,8.34
2023-04-24T22:25:41.071Z,8.42
2023-04-24T22:28:08.034Z,8.45
2023-04-24T22:30:34.713Z,8.54
2023-04-24T22:33:01.412Z,8.42
2023-04-24T22:35:28.169Z,8.38
2023-04-24T22:37:56.075Z,8.41
2023-04-24T22:40:24.763Z,8.48
2023-04-24T22:42:51.879Z,8.28
2023-04-24T22:45:18.776Z,8.37
2023-04-24T22:47:45.655Z,8.35
2023-04-24T22:50:12.351Z,8.32
2023-04-24T22:52:41.234Z,8.49
2023-04-24T22:55:08.596Z,8.14
2023-04-24T22:57:35.395Z,8.27
2023-04-24T23:00:11.420Z,8.28
2023-04-24T23:02:40.193Z,8.33
2023-04-24T23:05:07.942Z,8.28
2023-04-24T23:07:34.986Z,8.19
2023-04-24T23:10:02.409Z,8.06
2023-04-24T23:12:29.346Z,8.04
2023-04-24T23:14:56.255Z,8.09
2023-04-24T23:17:23.324Z,8.19
2023-04-24T23:19:50.044Z,7.92
2023-04-24T23:22:16.992Z,7.80
2023-04-24T23:24:43.713Z,7.72
2023-04-24T23:27:10.468Z,7.70
2023-04-24T23:29:37.099Z,7.65
2023-04-24T23:32:03.964Z,7.57
2023-04-24T23:34:30.942Z,7.68
2023-04-24T23:36:57.656Z,7.56
2023-04-24T23:39:24.364Z,7.62
2023-04-24T23:41:53.674Z,7.81
2023-04-24T23:44:20.390Z,7.82
2023-04-24T23:46:47.097Z,7.69
2023-04-24T23:49:15.011Z,7.76
2023-04-24T23:51:41.706Z,7.68
2023-04-24T23:54:08.798Z,7.47
2023-04-24T23:56:35.603Z,7.34
2023-04-24T23:59:02.318Z,7.19
